Decoded Metar for PABA (BARTER ISLAND in AK, USA) (IATA:BTI) | Meteo·Mobile Aviation Weather
aviador You're here:

PABA Decoded Metar

BARTER ISLAND in AK, USA
Report Time2019-10-20 22:52:00
UTC Time2019-10-20 23:39:06
Flight Rules vfr VFR
Wind110° at 20 kt
W.Decomp.*RWY 07: 19.5 kt HW 4.5 kt RCW
Visibility9999 m
Phenomena:N/A
Clouds:N/A
Expected CloudBase > 800 ft AGL from Temp-Dew spread
CeilingNone
Temp-3°C (ISA -18)
Dew Point-5°C (86% RH)
AAT-12.8°C
QNH1009 hPa
Density Alt-2,011 ft
Elevation7 ft
Report Wrong Elevation
Raw Report
PABA 202252Z 11020KT 10SM M03/M05 A2980=

Extra information for PABA:More info

Airport Information Weather charts Add Link Nearby Venues Social comments

AIRNAV info for PABA